Time;durP1;ratioP1;P1;durP2;ratioP2;P2;SDS_P1;SDS_P2;PMS_P1;PMS_P2;Temp;Humidity;BMP_temperature;BMP_pressure;BME280_temperature;BME280_humidity;BME280_pressure;Samples;Min_cycle;Max_cycle;Signal;HPM_P1;HPM_P2
2023/09/21 00:01:39;;;;;;;4.97;3.90;;;14.50;99.90;;;;;;5038201;28;20538;-76
2023/09/21 00:04:07;;;;;;;6.90;4.07;;;14.50;99.90;;;;;;5038662;28;20906;-75
2023/09/21 00:06:34;;;;;;;5.20;4.07;;;14.40;99.90;;;;;;5034755;28;20964;-75
2023/09/21 00:09:00;;;;;;;6.67;4.10;;;14.40;99.90;;;;;;5039046;28;20454;-75
2023/09/21 00:11:27;;;;;;;6.27;4.30;;;14.40;99.90;;;;;;5044496;28;20470;-75
2023/09/21 00:13:55;;;;;;;7.43;4.03;;;14.40;99.90;;;;;;5041950;28;20454;-75
2023/09/21 00:16:25;;;;;;;6.50;4.10;;;14.40;99.90;;;;;;5039185;28;20876;-74
2023/09/21 00:18:53;;;;;;;10.23;4.40;;;14.30;99.90;;;;;;5041579;28;20431;-74
2023/09/21 00:21:20;;;;;;;8.57;4.47;;;14.30;99.90;;;;;;5041465;28;20823;-75
2023/09/21 00:23:47;;;;;;;7.00;4.70;;;14.20;99.90;;;;;;5042951;28;20436;-75
2023/09/21 00:26:15;;;;;;;5.87;4.03;;;14.20;99.90;;;;;;5041374;28;20546;-75
2023/09/21 00:28:43;;;;;;;5.30;4.50;;;14.20;99.90;;;;;;5040672;28;20527;-75
2023/09/21 00:31:10;;;;;;;7.77;4.40;;;14.20;99.90;;;;;;5041867;28;20492;-74
2023/09/21 00:33:38;;;;;;;9.00;4.80;;;14.20;99.90;;;;;;5043625;28;20440;-75
2023/09/21 00:36:09;;;;;;;6.50;4.67;;;14.20;99.90;;;;;;5036380;28;20453;-75
2023/09/21 00:38:37;;;;;;;7.93;4.20;;;14.20;99.90;;;;;;5043814;28;20427;-75
2023/09/21 00:41:04;;;;;;;4.67;4.03;;;14.20;99.90;;;;;;5037082;28;20416;-75
2023/09/21 00:43:30;;;;;;;5.53;4.40;;;14.10;99.90;;;;;;5043957;28;20447;-75
2023/09/21 00:46:00;;;;;;;7.83;4.47;;;14.10;99.90;;;;;;5040863;28;20499;-75
2023/09/21 00:48:33;;;;;;;4.70;4.07;;;14.10;99.90;;;;;;5038589;28;20488;-75
2023/09/21 00:51:05;;;;;;;5.43;4.00;;;14.10;99.90;;;;;;5039833;28;20481;-74
2023/09/21 00:53:33;;;;;;;5.83;4.73;;;14.10;99.90;;;;;;5039422;28;20436;-74
2023/09/21 00:56:05;;;;;;;5.27;4.43;;;14.10;99.90;;;;;;5040363;28;20495;-75
2023/09/21 00:58:33;;;;;;;4.73;4.20;;;14.10;99.90;;;;;;5039606;28;20514;-75
2023/09/21 01:01:00;;;;;;;6.83;4.13;;;14.10;99.90;;;;;;5036701;28;20830;-74
2023/09/21 01:03:28;;;;;;;8.53;5.00;;;14.10;99.90;;;;;;5033710;28;20476;-74
2023/09/21 01:05:55;;;;;;;6.53;4.63;;;14.00;99.90;;;;;;5040532;28;20427;-75
2023/09/21 01:08:28;;;;;;;4.63;4.20;;;14.00;99.90;;;;;;5038793;28;20939;-75
2023/09/21 01:10:57;;;;;;;11.47;5.23;;;14.00;99.90;;;;;;5032959;28;21116;-74
2023/09/21 01:13:25;;;;;;;10.07;4.53;;;14.10;99.90;;;;;;5038578;28;20476;-74
2023/09/21 01:16:00;;;;;;;10.67;4.77;;;14.00;99.90;;;;;;5040699;28;20448;-75
2023/09/21 01:18:26;;;;;;;6.00;4.47;;;13.90;99.90;;;;;;5041078;28;20452;-75
2023/09/21 01:20:58;;;;;;;6.03;4.67;;;13.90;99.90;;;;;;5040093;28;20853;-74
2023/09/21 01:23:34;;;;;;;6.23;4.67;;;13.90;99.90;;;;;;5042071;28;20782;-75
2023/09/21 01:26:01;;;;;;;7.30;5.60;;;13.90;99.90;;;;;;5043012;28;20445;-75
2023/09/21 01:28:29;;;;;;;9.90;4.97;;;13.90;99.90;;;;;;5042603;28;20453;-74
2023/09/21 01:30:57;;;;;;;15.43;5.63;;;13.90;99.90;;;;;;5036722;28;20523;-74
2023/09/21 01:33:23;;;;;;;6.97;5.00;;;13.90;99.90;;;;;;5041586;28;20478;-75
2023/09/21 01:35:50;;;;;;;13.53;4.57;;;13.90;99.90;;;;;;5035635;28;20456;-75
2023/09/21 01:38:19;;;;;;;11.40;5.40;;;13.90;99.90;;;;;;5039903;28;20507;-75
2023/09/21 01:40:47;;;;;;;5.77;4.80;;;13.80;99.90;;;;;;5039435;28;20521;-75
2023/09/21 01:43:16;;;;;;;8.73;4.50;;;13.90;99.90;;;;;;5039988;28;20469;-75
2023/09/21 01:45:44;;;;;;;8.53;5.50;;;13.80;99.90;;;;;;5041168;28;20843;-75
2023/09/21 01:48:14;;;;;;;8.50;4.93;;;13.90;99.90;;;;;;5039453;28;20449;-74
2023/09/21 01:50:44;;;;;;;6.53;5.27;;;13.90;99.90;;;;;;5038060;28;20466;-75
2023/09/21 01:53:11;;;;;;;7.43;5.83;;;14.00;99.90;;;;;;5042366;28;20989;-74
2023/09/21 01:55:39;;;;;;;9.87;5.50;;;13.90;99.90;;;;;;5045054;28;20448;-75
2023/09/21 01:58:09;;;;;;;10.10;5.87;;;13.90;99.90;;;;;;5041682;28;20837;-75
2023/09/21 02:00:39;;;;;;;9.03;5.60;;;13.90;99.90;;;;;;5043455;28;20484;-75
2023/09/21 02:03:09;;;;;;;9.60;5.33;;;13.90;99.90;;;;;;5039939;28;20465;-75
2023/09/21 02:05:36;;;;;;;9.07;5.07;;;13.90;99.90;;;;;;5041526;28;20856;-75
2023/09/21 02:08:04;;;;;;;8.60;5.20;;;13.90;99.90;;;;;;5034153;28;20834;-75
2023/09/21 02:10:32;;;;;;;6.80;5.20;;;13.90;99.90;;;;;;5044430;28;20977;-75
2023/09/21 02:13:00;;;;;;;8.23;4.87;;;13.80;99.90;;;;;;5038054;28;20841;-75
2023/09/21 02:15:29;;;;;;;8.70;5.07;;;13.80;99.90;;;;;;5033884;28;21001;-75
2023/09/21 02:17:57;;;;;;;5.70;4.83;;;13.80;99.90;;;;;;5036757;28;20971;-74
2023/09/21 02:20:24;;;;;;;8.57;5.60;;;13.80;99.90;;;;;;5038706;28;20968;-74
2023/09/21 02:22:52;;;;;;;11.10;4.30;;;13.80;99.90;;;;;;5040153;28;20497;-74
2023/09/21 02:25:19;;;;;;;7.60;5.10;;;13.80;99.90;;;;;;5039912;28;20453;-74
2023/09/21 02:27:47;;;;;;;7.57;5.10;;;13.70;99.90;;;;;;5042795;28;20452;-75
2023/09/21 02:30:16;;;;;;;5.37;4.73;;;13.80;99.90;;;;;;5040383;28;20540;-74
2023/09/21 02:32:45;;;;;;;8.10;5.47;;;13.70;99.90;;;;;;5042508;28;20467;-74
2023/09/21 02:35:15;;;;;;;6.50;5.57;;;13.70;99.90;;;;;;5039985;28;21100;-74
2023/09/21 02:37:45;;;;;;;8.20;5.30;;;13.70;99.90;;;;;;5042128;28;21035;-74
2023/09/21 02:40:15;;;;;;;5.10;4.60;;;13.70;99.90;;;;;;5039130;28;21021;-74
2023/09/21 02:42:43;;;;;;;6.00;5.03;;;13.70;99.90;;;;;;5042637;28;20479;-74
2023/09/21 02:45:11;;;;;;;9.20;4.90;;;13.70;99.90;;;;;;5039658;28;20527;-75
2023/09/21 02:47:38;;;;;;;9.47;5.40;;;13.60;99.90;;;;;;5042716;28;20427;-74
2023/09/21 02:50:14;;;;;;;7.03;4.67;;;13.60;99.90;;;;;;5040336;28;20427;-74
2023/09/21 02:52:45;;;;;;;6.37;5.40;;;13.60;99.90;;;;;;5036344;28;20865;-75
2023/09/21 02:55:12;;;;;;;8.07;5.67;;;13.60;99.90;;;;;;5039516;28;20473;-74
2023/09/21 02:57:39;;;;;;;9.33;5.27;;;13.60;99.90;;;;;;5042493;28;20452;-74
2023/09/21 03:00:20;;;;;;;10.20;5.90;;;13.60;99.90;;;;;;5039012;28;21001;-75
2023/09/21 03:02:47;;;;;;;12.23;4.93;;;13.50;99.90;;;;;;5035327;28;20842;-74
2023/09/21 03:05:16;;;;;;;11.13;5.70;;;13.50;99.90;;;;;;5038814;28;20522;-74
2023/09/21 03:07:44;;;;;;;7.00;5.00;;;13.50;99.90;;;;;;5040936;28;20444;-74
2023/09/21 03:10:11;;;;;;;5.80;4.83;;;13.40;99.90;;;;;;5037718;28;21251;-74
2023/09/21 03:12:38;;;;;;;7.20;5.60;;;13.40;99.90;;;;;;5034106;28;20550;-74
2023/09/21 03:15:07;;;;;;;7.07;5.27;;;13.40;99.90;;;;;;5038036;28;20450;-74
2023/09/21 03:17:36;;;;;;;8.43;5.60;;;13.40;99.90;;;;;;5041131;28;20798;-74
2023/09/21 03:20:18;;;;;;;8.20;5.47;;;13.40;99.90;;;;;;5042539;28;20458;-74
2023/09/21 03:22:46;;;;;;;6.67;5.87;;;13.40;99.90;;;;;;5034203;28;20443;-74
2023/09/21 03:25:16;;;;;;;6.90;4.90;;;13.40;99.90;;;;;;5036691;28;20935;-74
2023/09/21 03:27:45;;;;;;;8.43;6.60;;;13.40;99.90;;;;;;5035389;28;20478;-75
2023/09/21 03:30:13;;;;;;;8.60;6.53;;;13.30;99.90;;;;;;5037963;28;20454;-74
2023/09/21 03:32:40;;;;;;;9.97;6.60;;;13.30;99.90;;;;;;5036479;28;20492;-74
2023/09/21 03:35:10;;;;;;;9.03;6.97;;;13.40;99.90;;;;;;5037492;28;20432;-74
2023/09/21 03:37:38;;;;;;;7.63;6.20;;;13.30;99.90;;;;;;5040373;28;20514;-75
2023/09/21 03:40:09;;;;;;;10.90;6.70;;;13.30;99.90;;;;;;5034586;28;20439;-74
2023/09/21 03:42:36;;;;;;;8.83;6.37;;;13.30;99.90;;;;;;5039839;28;20894;-74
2023/09/21 03:45:02;;;;;;;10.87;6.27;;;13.30;99.90;;;;;;5035494;28;20420;-74
2023/09/21 03:47:29;;;;;;;8.90;6.90;;;13.30;99.90;;;;;;5038934;28;20500;-74
2023/09/21 03:49:56;;;;;;;11.53;6.50;;;13.20;99.90;;;;;;5037457;28;20518;-74
2023/09/21 03:52:23;;;;;;;11.40;6.80;;;13.20;99.90;;;;;;5037601;28;20460;-75
2023/09/21 03:54:49;;;;;;;8.77;6.90;;;13.20;99.90;;;;;;5038075;28;20563;-74
2023/09/21 03:57:17;;;;;;;11.77;6.50;;;13.20;99.90;;;;;;5037327;28;20453;-75
2023/09/21 03:59:46;;;;;;;10.60;6.47;;;13.20;99.90;;;;;;5039289;28;20522;-74
2023/09/21 04:02:13;;;;;;;13.70;7.53;;;13.20;99.90;;;;;;5033012;28;20484;-74
2023/09/21 04:04:40;;;;;;;8.97;6.10;;;13.10;99.90;;;;;;5038947;28;20457;-74
2023/09/21 04:07:07;;;;;;;12.60;7.30;;;13.10;99.90;;;;;;5035921;28;20472;-74
2023/09/21 04:09:34;;;;;;;9.77;7.47;;;13.10;99.90;;;;;;5038333;28;20460;-74
2023/09/21 04:12:01;;;;;;;9.70;6.93;;;13.10;99.90;;;;;;5035659;28;20456;-74
2023/09/21 04:14:29;;;;;;;8.60;6.43;;;13.10;99.90;;;;;;5037228;28;20483;-74
2023/09/21 04:16:56;;;;;;;6.83;6.10;;;13.10;99.90;;;;;;5036668;28;20430;-74
2023/09/21 04:19:23;;;;;;;10.37;7.10;;;13.10;99.90;;;;;;5036880;28;20511;-74
2023/09/21 04:21:50;;;;;;;12.00;6.70;;;13.10;99.90;;;;;;5036774;28;20989;-74
2023/09/21 04:24:17;;;;;;;10.20;6.57;;;13.10;99.90;;;;;;5036225;28;20449;-75
2023/09/21 04:26:44;;;;;;;12.67;7.47;;;13.10;99.90;;;;;;5038086;28;21081;-74
2023/09/21 04:29:11;;;;;;;9.23;6.00;;;13.10;99.90;;;;;;5035062;28;20954;-74
2023/09/21 04:31:39;;;;;;;9.40;6.70;;;13.10;99.90;;;;;;5037062;28;21082;-74
2023/09/21 04:34:06;;;;;;;14.50;7.37;;;13.10;99.90;;;;;;5033097;28;20480;-74
2023/09/21 04:36:32;;;;;;;9.33;7.10;;;13.10;99.90;;;;;;5035698;28;20453;-74
2023/09/21 04:39:00;;;;;;;11.30;7.73;;;13.10;99.90;;;;;;5036200;28;20449;-75
2023/09/21 04:41:27;;;;;;;9.17;6.37;;;13.20;99.90;;;;;;5034035;28;20500;-75
2023/09/21 04:43:55;;;;;;;12.10;6.30;;;13.20;99.90;;;;;;5036518;28;20938;-75
2023/09/21 04:46:21;;;;;;;12.10;7.13;;;13.20;99.90;;;;;;5035240;28;20456;-75
2023/09/21 04:48:49;;;;;;;8.37;6.77;;;13.20;99.90;;;;;;5036410;28;20415;-75
2023/09/21 04:51:17;;;;;;;8.90;6.17;;;13.20;99.90;;;;;;5034687;28;20509;-75
2023/09/21 04:53:45;;;;;;;10.33;6.57;;;13.20;99.90;;;;;;5036706;28;20488;-75
2023/09/21 04:56:12;;;;;;;9.67;7.13;;;13.30;99.90;;;;;;5035155;28;20931;-74
2023/09/21 04:58:38;;;;;;;10.60;6.70;;;13.30;99.90;;;;;;5036928;28;20532;-75
2023/09/21 05:01:09;;;;;;;13.80;6.73;;;13.30;99.90;;;;;;5031071;28;20539;-75
2023/09/21 05:03:36;;;;;;;10.03;6.70;;;13.40;99.90;;;;;;5036327;28;20459;-75
2023/09/21 05:06:04;;;;;;;8.07;5.80;;;13.40;99.90;;;;;;5029675;28;20416;-75
2023/09/21 05:08:35;;;;;;;6.73;6.10;;;13.50;99.90;;;;;;5033801;28;20453;-74
2023/09/21 05:11:01;;;;;;;7.43;5.53;;;13.50;99.90;;;;;;5028575;28;20515;-75
2023/09/21 05:13:28;;;;;;;10.70;7.00;;;13.60;99.90;;;;;;5035219;28;20464;-75
2023/09/21 05:15:54;;;;;;;15.83;6.77;;;13.60;99.90;;;;;;5034976;28;20487;-75
2023/09/21 05:18:22;;;;;;;10.00;6.07;;;13.70;99.90;;;;;;5034933;28;20446;-75
2023/09/21 05:20:49;;;;;;;7.43;5.93;;;13.70;99.90;;;;;;5035678;28;20452;-75
2023/09/21 05:23:17;;;;;;;11.70;6.13;;;13.80;99.90;;;;;;5034213;28;20527;-74
2023/09/21 05:25:44;;;;;;;11.63;7.37;;;13.80;99.90;;;;;;5035920;28;20422;-74
2023/09/21 05:28:11;;;;;;;8.43;6.57;;;13.80;99.90;;;;;;5037944;28;20445;-75
2023/09/21 05:30:38;;;;;;;9.60;6.73;;;13.90;99.90;;;;;;5039399;28;20453;-74
2023/09/21 05:33:07;;;;;;;9.27;6.00;;;13.90;99.90;;;;;;5038009;28;20507;-74
2023/09/21 05:35:34;;;;;;;9.23;6.67;;;14.00;99.90;;;;;;5037803;28;20463;-74
2023/09/21 05:38:01;;;;;;;13.60;7.00;;;14.00;99.90;;;;;;5035445;28;20462;-75
2023/09/21 05:40:29;;;;;;;8.27;5.90;;;14.00;99.90;;;;;;5034333;28;20816;-75
2023/09/21 05:42:55;;;;;;;9.97;7.07;;;14.10;99.90;;;;;;5032609;28;20592;-74
2023/09/21 05:45:22;;;;;;;12.27;6.80;;;14.10;99.90;;;;;;5041114;28;20784;-75
2023/09/21 05:47:49;;;;;;;9.07;6.23;;;14.10;99.90;;;;;;5037271;28;20536;-74
2023/09/21 05:50:16;;;;;;;7.53;6.33;;;14.10;99.90;;;;;;5036867;28;20507;-74
2023/09/21 05:52:43;;;;;;;8.60;6.03;;;14.10;99.90;;;;;;5038287;28;20583;-74
2023/09/21 05:55:12;;;;;;;14.63;6.60;;;14.10;99.90;;;;;;5036787;28;20903;-75
2023/09/21 05:57:46;;;;;;;8.70;6.00;;;14.10;99.90;;;;;;5038207;28;20478;-74
2023/09/21 06:00:14;;;;;;;12.60;6.40;;;14.20;99.90;;;;;;5036122;28;20955;-74
2023/09/21 06:02:41;;;;;;;9.37;5.97;;;14.20;99.90;;;;;;5033490;28;20461;-74
2023/09/21 06:05:10;;;;;;;9.17;6.43;;;14.20;99.90;;;;;;5035076;28;20480;-74
2023/09/21 06:07:36;;;;;;;10.27;6.43;;;14.30;99.90;;;;;;5037315;28;20537;-74
2023/09/21 06:10:04;;;;;;;9.97;6.57;;;14.30;99.90;;;;;;5041629;28;20428;-74
2023/09/21 06:12:31;;;;;;;11.27;6.53;;;14.40;99.90;;;;;;5034177;28;20507;-74
2023/09/21 06:14:59;;;;;;;10.00;6.00;;;14.50;99.90;;;;;;5036119;28;20440;-74
2023/09/21 06:17:27;;;;;;;11.03;6.80;;;15.00;99.90;;;;;;5033888;28;20432;-73
2023/09/21 06:19:53;;;;;;;8.60;6.37;;;15.40;99.90;;;;;;5036269;28;20439;-73
2023/09/21 06:22:20;;;;;;;10.00;6.77;;;15.70;99.90;;;;;;5034249;28;20452;-74
2023/09/21 06:24:47;;;;;;;15.33;7.60;;;15.70;99.90;;;;;;5034176;28;20452;-74
2023/09/21 06:27:15;;;;;;;10.00;6.47;;;15.70;99.90;;;;;;5033773;28;20428;-74
2023/09/21 06:29:42;;;;;;;10.57;5.87;;;15.60;99.90;;;;;;5035515;28;20449;-74
2023/09/21 06:32:11;;;;;;;11.23;6.23;;;15.50;99.90;;;;;;5032559;28;20460;-74
2023/09/21 06:34:41;;;;;;;8.93;6.90;;;15.50;99.90;;;;;;5034683;28;20468;-74
2023/09/21 06:37:08;;;;;;;7.80;6.60;;;15.40;99.90;;;;;;5031346;28;20448;-74
2023/09/21 06:39:35;;;;;;;8.93;6.13;;;15.40;99.90;;;;;;5031435;28;20512;-74
2023/09/21 06:42:03;;;;;;;8.90;6.93;;;15.30;99.90;;;;;;5027653;28;20477;-74
2023/09/21 06:44:30;;;;;;;11.23;7.00;;;15.40;99.90;;;;;;5037009;28;20434;-74
2023/09/21 06:46:57;;;;;;;9.47;7.07;;;15.30;99.90;;;;;;5037093;28;20432;-74
2023/09/21 06:49:26;;;;;;;14.70;7.40;;;15.30;99.90;;;;;;5036611;28;20421;-74
2023/09/21 06:51:56;;;;;;;11.63;6.63;;;15.30;99.90;;;;;;5036534;28;20469;-74
2023/09/21 06:54:23;;;;;;;9.40;7.13;;;15.30;99.90;;;;;;5038136;28;20480;-74
2023/09/21 06:56:50;;;;;;;11.50;7.20;;;15.30;99.90;;;;;;5038765;28;20439;-74
2023/09/21 06:59:17;;;;;;;14.37;7.83;;;15.40;99.90;;;;;;5038011;28;20436;-74
2023/09/21 07:01:44;;;;;;;13.03;7.40;;;15.40;99.90;;;;;;5036879;28;20458;-74
2023/09/21 07:04:11;;;;;;;13.33;7.43;;;15.50;99.90;;;;;;5037327;28;20457;-74
2023/09/21 07:06:40;;;;;;;18.90;7.40;;;15.40;99.90;;;;;;5037785;28;20439;-74
2023/09/21 07:09:08;;;;;;;13.05;7.18;;;15.50;99.90;;;;;;5037072;28;20525;-73
2023/09/21 07:11:35;;;;;;;13.00;7.80;;;15.50;99.90;;;;;;5037372;28;20230;-74
2023/09/21 07:14:03;;;;;;;15.07;7.83;;;15.50;99.90;;;;;;5038204;28;20493;-73
2023/09/21 07:16:30;;;;;;;14.90;8.37;;;15.60;99.90;;;;;;5037741;28;20510;-73
2023/09/21 07:18:57;;;;;;;16.97;7.70;;;15.80;99.90;;;;;;5037186;28;20476;-73
2023/09/21 07:21:24;;;;;;;12.00;8.00;;;15.90;99.90;;;;;;5036309;28;20495;-73
2023/09/21 07:23:52;;;;;;;13.63;6.90;;;16.00;99.90;;;;;;5037765;28;20434;-73
2023/09/21 07:26:18;;;;;;;10.63;6.50;;;16.00;99.90;;;;;;5037849;28;20452;-73
2023/09/21 07:28:45;;;;;;;11.60;6.50;;;16.10;99.90;;;;;;5037565;28;20461;-73
2023/09/21 07:31:12;;;;;;;11.83;6.67;;;16.20;99.90;;;;;;5037112;28;21072;-73
2023/09/21 07:33:38;;;;;;;11.40;7.53;;;16.30;99.90;;;;;;5037250;28;20528;-73
2023/09/21 07:36:06;;;;;;;11.27;6.27;;;16.40;99.90;;;;;;5038157;28;20431;-73
2023/09/21 07:38:32;;;;;;;11.97;7.40;;;16.50;99.90;;;;;;5037801;28;20825;-74
2023/09/21 07:41:02;;;;;;;12.93;6.87;;;16.70;99.90;;;;;;5036382;28;20936;-73
2023/09/21 07:43:29;;;;;;;12.33;6.70;;;16.80;99.90;;;;;;5038230;28;20481;-73
2023/09/21 07:45:57;;;;;;;8.07;6.43;;;17.00;99.90;;;;;;5036995;28;20507;-73
2023/09/21 07:48:25;;;;;;;11.50;6.90;;;17.00;99.90;;;;;;5036162;28;20864;-73
2023/09/21 07:50:55;;;;;;;8.53;5.87;;;17.10;99.90;;;;;;5036737;28;20477;-73
2023/09/21 07:53:21;;;;;;;8.47;6.57;;;17.20;99.90;;;;;;5037252;28;20545;-73
2023/09/21 07:56:00;;;;;;;13.00;6.33;;;17.30;99.90;;;;;;5036983;28;20465;-73
2023/09/21 07:58:26;;;;;;;8.60;5.70;;;17.40;99.90;;;;;;5037504;28;20454;-73
2023/09/21 08:00:55;;;;;;;7.57;6.00;;;17.30;99.90;;;;;;5037149;28;20514;-74
2023/09/21 08:03:25;;;;;;;8.20;6.00;;;17.30;99.90;;;;;;5037358;28;20460;-73
2023/09/21 08:05:52;;;;;;;7.97;5.83;;;17.30;99.90;;;;;;5037290;28;20423;-73
2023/09/21 08:08:18;;;;;;;11.57;5.70;;;17.30;99.90;;;;;;5036189;28;20448;-73
2023/09/21 08:10:45;;;;;;;9.93;5.87;;;17.20;99.90;;;;;;5036551;28;20419;-73
2023/09/21 08:13:13;;;;;;;8.30;5.60;;;17.20;99.90;;;;;;5035220;28;20517;-74
2023/09/21 08:15:40;;;;;;;8.63;5.33;;;17.20;99.90;;;;;;5036248;28;20440;-73
2023/09/21 08:18:10;;;;;;;9.47;6.40;;;17.10;99.90;;;;;;5036448;28;20431;-73
2023/09/21 08:20:36;;;;;;;8.27;6.10;;;17.10;99.90;;;;;;5035945;28;20457;-74
2023/09/21 08:23:03;;;;;;;10.50;5.73;;;17.10;99.90;;;;;;5035859;28;20467;-74
2023/09/21 08:25:30;;;;;;;13.13;5.97;;;17.10;99.90;;;;;;5035507;28;20493;-74
2023/09/21 08:27:58;;;;;;;8.27;5.93;;;17.20;99.90;;;;;;5036018;28;20440;-73
2023/09/21 08:30:26;;;;;;;11.60;6.13;;;17.20;99.90;;;;;;5035806;28;20453;-75
2023/09/21 08:32:53;;;;;;;11.43;6.53;;;17.20;99.90;;;;;;5035681;28;20550;-73
2023/09/21 08:35:19;;;;;;;11.67;6.20;;;17.20;99.90;;;;;;5036296;28;20509;-73
2023/09/21 08:37:48;;;;;;;15.47;6.40;;;17.30;99.90;;;;;;5035335;28;20844;-73
2023/09/21 08:40:15;;;;;;;11.83;6.10;;;17.20;99.90;;;;;;5033496;28;20450;-72
2023/09/21 08:42:44;;;;;;;9.67;5.90;;;17.30;99.90;;;;;;5035559;28;20459;-73
2023/09/21 08:45:11;;;;;;;12.63;6.70;;;17.30;99.90;;;;;;5035548;28;20465;-74
2023/09/21 08:47:40;;;;;;;12.77;6.80;;;17.30;99.90;;;;;;5035089;28;20448;-75
2023/09/21 08:50:09;;;;;;;8.37;5.73;;;17.30;99.90;;;;;;5036772;28;20427;-74
2023/09/21 08:52:36;;;;;;;9.40;5.70;;;17.30;99.90;;;;;;5036562;28;20454;-74
2023/09/21 08:55:03;;;;;;;7.93;6.00;;;17.30;99.90;;;;;;5036489;28;20463;-75
2023/09/21 08:57:30;;;;;;;7.07;5.37;;;17.30;99.90;;;;;;5036566;28;21004;-73
2023/09/21 09:00:03;;;;;;;7.50;5.80;;;17.30;99.90;;;;;;5036362;28;20442;-73
2023/09/21 09:02:29;;;;;;;12.43;5.83;;;17.40;99.90;;;;;;5038962;28;20463;-72
2023/09/21 09:04:57;;;;;;;12.23;6.20;;;17.40;99.90;;;;;;5039168;28;20838;-72
2023/09/21 09:07:24;;;;;;;10.37;5.87;;;17.40;99.90;;;;;;5038840;28;21072;-73
2023/09/21 09:09:51;;;;;;;7.93;5.47;;;17.40;99.90;;;;;;5039490;28;20449;-74
2023/09/21 09:12:22;;;;;;;8.53;5.47;;;17.50;99.90;;;;;;5038959;28;20480;-74
2023/09/21 09:14:49;;;;;;;9.53;6.20;;;17.50;99.90;;;;;;5038867;28;20492;-73
2023/09/21 09:17:16;;;;;;;7.77;5.10;;;17.50;99.90;;;;;;5040123;28;20434;-73
2023/09/21 09:19:43;;;;;;;8.70;5.80;;;17.50;99.90;;;;;;5039557;28;20432;-73
2023/09/21 09:22:11;;;;;;;10.93;6.07;;;17.50;99.90;;;;;;5039554;28;20488;-73
2023/09/21 09:24:38;;;;;;;9.57;5.50;;;17.60;99.90;;;;;;5039190;28;20449;-74
2023/09/21 09:27:05;;;;;;;13.47;6.40;;;17.60;99.90;;;;;;5038810;28;20428;-74
2023/09/21 09:29:33;;;;;;;15.63;5.80;;;17.60;99.90;;;;;;5039695;28;20443;-73
2023/09/21 09:32:00;;;;;;;10.13;5.93;;;17.60;99.90;;;;;;5038976;28;20510;-73
2023/09/21 09:34:28;;;;;;;11.17;5.77;;;17.70;99.90;;;;;;5038282;28;20487;-74
2023/09/21 09:36:55;;;;;;;8.00;5.80;;;17.80;99.90;;;;;;5039283;28;20508;-74
2023/09/21 09:39:24;;;;;;;11.83;6.00;;;17.70;99.90;;;;;;5038618;28;20436;-74
2023/09/21 09:41:51;;;;;;;9.20;6.10;;;17.70;99.90;;;;;;5038146;28;21147;-74
2023/09/21 09:44:22;;;;;;;9.45;5.70;;;17.70;99.90;;;;;;5039197;28;20447;-74
2023/09/21 09:46:53;;;;;;;13.10;6.20;;;17.70;99.90;;;;;;5039158;28;20300;-74
2023/09/21 09:49:25;;;;;;;10.53;5.80;;;17.80;99.90;;;;;;5039570;28;20419;-74
2023/09/21 09:51:56;;;;;;;9.63;6.03;;;17.80;99.90;;;;;;5038264;28;21180;-74
2023/09/21 09:54:26;;;;;;;12.37;5.60;;;17.80;99.90;;;;;;5038922;28;20546;-75
2023/09/21 09:56:53;;;;;;;11.17;5.57;;;17.90;99.90;;;;;;5038999;28;20461;-74
2023/09/21 09:59:23;;;;;;;7.07;5.13;;;18.00;99.90;;;;;;5038788;28;20876;-76
2023/09/21 10:01:50;;;;;;;8.67;5.87;;;18.10;99.90;;;;;;5038251;28;20477;-75
2023/09/21 10:04:18;;;;;;;9.47;6.57;;;18.20;99.90;;;;;;5038563;28;20495;-74
2023/09/21 10:06:46;;;;;;;12.43;6.67;;;18.30;99.90;;;;;;5037453;28;20510;-75
2023/09/21 10:09:13;;;;;;;8.77;5.60;;;18.40;99.90;;;;;;5039520;28;20496;-75
2023/09/21 10:11:46;;;;;;;9.13;6.40;;;18.60;99.90;;;;;;5038657;28;20483;-74
2023/09/21 10:14:14;;;;;;;14.00;8.47;;;18.80;99.90;;;;;;5039644;28;20499;-74
2023/09/21 10:16:49;;;;;;;16.63;6.30;;;19.00;99.90;;;;;;5038544;28;20939;-74
2023/09/21 10:19:24;;;;;;;9.50;6.40;;;19.20;99.90;;;;;;5038618;28;20994;-74
2023/09/21 10:21:54;;;;;;;11.17;6.70;;;19.30;99.90;;;;;;5038828;28;20505;-74
2023/09/21 10:24:24;;;;;;;12.93;7.20;;;19.50;99.90;;;;;;5038441;28;20428;-74
2023/09/21 10:26:53;;;;;;;15.50;5.53;;;19.70;99.90;;;;;;5039280;28;20457;-74
2023/09/21 10:29:21;;;;;;;6.50;4.70;;;19.90;99.90;;;;;;5038601;28;20449;-74
2023/09/21 10:31:55;;;;;;;8.80;5.17;;;20.00;99.90;;;;;;5037828;28;20484;-74
2023/09/21 10:34:22;;;;;;;6.80;4.70;;;20.10;99.90;;;;;;5038588;28;20477;-74
2023/09/21 10:36:51;;;;;;;8.10;5.10;;;20.30;99.90;;;;;;5038492;28;20467;-74
2023/09/21 10:39:26;;;;;;;6.73;4.53;;;20.50;99.90;;;;;;5038413;28;20485;-74
2023/09/21 10:41:57;;;;;;;8.50;4.97;;;20.80;99.90;;;;;;5038778;28;20533;-74
2023/09/21 10:44:56;;;;;;;10.30;4.90;;;21.10;99.90;;;;;;5038272;28;21319;-74
2023/09/21 10:47:26;;;;;;;6.57;4.83;;;21.10;99.90;;;;;;5038143;28;20807;-74
2023/09/21 10:49:53;;;;;;;12.70;5.03;;;21.10;99.90;;;;;;5038361;28;20503;-74
2023/09/21 10:52:21;;;;;;;6.47;4.60;;;21.10;99.90;;;;;;5038025;28;20511;-75
2023/09/21 10:54:49;;;;;;;8.93;4.87;;;21.10;99.90;;;;;;5037357;28;20488;-70
2023/09/21 10:57:22;;;;;;;6.13;4.63;;;21.10;99.90;;;;;;5038542;28;20457;-74
2023/09/21 10:59:50;;;;;;;6.53;4.50;;;21.00;99.90;;;;;;5038046;28;20460;-75
2023/09/21 11:02:17;;;;;;;11.17;5.00;;;21.00;99.90;;;;;;5036522;28;20480;-74
2023/09/21 11:04:44;;;;;;;9.63;4.20;;;21.00;99.90;;;;;;5037940;28;20445;-73
2023/09/21 11:07:13;;;;;;;6.27;3.97;;;20.80;99.90;;;;;;5038044;28;20491;-73
2023/09/21 11:09:40;;;;;;;6.87;4.20;;;20.90;99.90;;;;;;5037655;28;20457;-74
2023/09/21 11:12:08;;;;;;;5.57;3.80;;;20.80;99.90;;;;;;5035906;28;20484;-74
2023/09/21 11:14:36;;;;;;;6.63;4.20;;;20.80;99.90;;;;;;5037547;28;20593;-73
2023/09/21 11:17:04;;;;;;;9.23;4.17;;;20.80;99.90;;;;;;5036453;28;20452;-73
2023/09/21 11:19:31;;;;;;;4.23;3.43;;;20.70;99.90;;;;;;5037363;28;20510;-73
2023/09/21 11:21:58;;;;;;;10.97;4.77;;;20.60;99.90;;;;;;5036596;28;20469;-74
2023/09/21 11:24:26;;;;;;;5.37;4.40;;;20.80;99.90;;;;;;5036620;28;20955;-74
2023/09/21 11:26:54;;;;;;;5.17;3.90;;;20.80;99.90;;;;;;5036973;28;20845;-74
2023/09/21 11:29:21;;;;;;;7.67;3.77;;;20.80;99.90;;;;;;5038063;28;20472;-74
2023/09/21 11:31:51;;;;;;;5.23;3.73;;;20.80;99.90;;;;;;5036410;28;20568;-73
2023/09/21 11:34:18;;;;;;;7.23;4.00;;;20.80;99.90;;;;;;5038206;28;20555;-75
2023/09/21 11:36:44;;;;;;;8.13;4.03;;;20.80;99.90;;;;;;5037618;28;20497;-73
2023/09/21 11:39:11;;;;;;;10.00;4.00;;;20.70;99.90;;;;;;5036675;28;20448;-74
2023/09/21 11:41:40;;;;;;;6.90;4.40;;;20.70;99.90;;;;;;5035392;28;21002;-74
2023/09/21 11:44:07;;;;;;;5.57;3.87;;;20.80;99.90;;;;;;5036755;28;20875;-75
2023/09/21 11:46:34;;;;;;;4.10;3.60;;;20.70;99.90;;;;;;5036457;28;20494;-73
2023/09/21 11:49:03;;;;;;;8.37;3.67;;;20.80;99.90;;;;;;5036648;28;20465;-74
2023/09/21 11:51:30;;;;;;;9.07;3.80;;;20.80;99.90;;;;;;5035599;28;20511;-75
2023/09/21 11:53:58;;;;;;;5.20;3.40;;;20.80;99.90;;;;;;5036378;28;21000;-74
2023/09/21 11:56:24;;;;;;;3.83;3.43;;;20.80;99.90;;;;;;5036691;28;20489;-74
2023/09/21 11:58:53;;;;;;;4.40;3.53;;;20.80;99.90;;;;;;5037045;28;20483;-74
2023/09/21 12:01:22;;;;;;;7.93;3.90;;;20.90;99.90;;;;;;5036143;28;20457;-74
2023/09/21 12:03:51;;;;;;;4.27;3.30;;;21.00;99.90;;;;;;5036680;28;20449;-74
2023/09/21 12:06:19;;;;;;;12.23;3.90;;;21.10;99.90;;;;;;5036718;28;20461;-74
2023/09/21 12:08:47;;;;;;;5.50;3.60;;;21.00;99.90;;;;;;5035857;28;20448;-73
2023/09/21 12:11:14;;;;;;;20.87;3.97;;;21.10;99.90;;;;;;5036699;28;20472;-73
2023/09/21 12:13:42;;;;;;;6.00;3.73;;;21.20;99.90;;;;;;5036813;28;20483;-74
2023/09/21 12:16:08;;;;;;;3.60;3.30;;;21.10;99.90;;;;;;5036754;28;20850;-74
2023/09/21 12:18:35;;;;;;;8.15;3.53;;;21.20;99.90;;;;;;5035927;28;20531;-74
2023/09/21 12:21:03;;;;;;;6.23;3.97;;;21.20;99.90;;;;;;5036128;28;20202;-74
2023/09/21 12:23:31;;;;;;;10.20;4.10;;;21.20;99.90;;;;;;5035583;28;21036;-74
2023/09/21 12:25:58;;;;;;;8.20;4.00;;;21.30;99.90;;;;;;5035694;28;20993;-73
2023/09/21 12:28:24;;;;;;;6.40;3.40;;;21.30;99.90;;;;;;5036270;28;21146;-74
2023/09/21 12:30:51;;;;;;;4.73;3.23;;;21.30;99.90;;;;;;5036084;28;20457;-75
2023/09/21 12:33:19;;;;;;;4.07;3.50;;;21.30;99.90;;;;;;5036617;28;20469;-74
2023/09/21 12:35:45;;;;;;;5.20;3.63;;;21.50;99.90;;;;;;5036956;28;20497;-74
2023/09/21 12:38:12;;;;;;;4.77;3.83;;;21.50;99.90;;;;;;5036838;28;20489;-74
2023/09/21 12:40:40;;;;;;;5.53;3.40;;;21.60;99.90;;;;;;5035614;28;20982;-74
2023/09/21 12:43:08;;;;;;;5.53;3.30;;;21.80;99.90;;;;;;5036795;28;20483;-74
2023/09/21 12:45:37;;;;;;;4.00;3.43;;;21.80;99.90;;;;;;5035827;28;20803;-74
2023/09/21 12:48:07;;;;;;;5.73;3.37;;;22.00;99.90;;;;;;5036447;28;20892;-74